Kapolei, HI (96707)

7:20 PM HST on April 26, 2015 (GMT -1000)
Upper Makakilo | | Change Station
CLOSE
Current Station
Personal Weather Station
Location: Makakilo City, HI
Elevation: 1060 ft
Nearby Weather Stations

Elev 1060 ft 21.37 °N, 158.09 °W | Updated 25 seconds ago

Overcast
Overcast
71.1 °F
Feels Like 71.1 °F
N
5.7
Wind Variable Wind from NNE
Gusts 10.4 mph

Today
High -- | Low -- °F
--% Chance of Precip.
Yesterday
High -- | Low -- °F
Precip. -- in
6:04 AM 6:55 PM
First Quarter, 62% visible
Pressure 30.01 in
Visibility 10.0 miles
Clouds Overcast 4500 ft
Dew Point 68 °F
Humidity 89%
Rainfall 0.02 in
Snow Depth Not available.
UV 0.0 out of 12
Pollen Not available.
Air Quality Not available.
Flu Activity Regional
METAR PHJR 270453Z 00000KT 10SM OVC045 24/19 A2999 RMK AO2 RAE05 SLP162 P0000 T02440194

More Conditions Fewer Conditions

Pressure 30.01 in
Visibility 10.0 miles
Clouds Overcast 4500 ft
Dew Point 68 °F
Humidity 89%
Rainfall 0.02 in
Snow Depth Not available.
UV 0.0 out of 12
Pollen Not available.
Air Quality Not available.
Flu Activity Regional
METAR PHJR 270453Z 00000KT 10SM OVC045 24/19 A2999 RMK AO2 RAE05 SLP162 P0000 T02440194

More Conditions Fewer Conditions

10-Day Weather Forecast

Almanac

Astronomy

Apr. 26, 2015 Rise Set
Actual Time
Civil Twilight
Nautical Twilight
Astronomical Twilight
Moon
Length of Visible Light
Length of Day
Tomorrow will be .
, % of the Moon is Illuminated

Today's Extremes

State Highs State Lows

Community

WunderPhotos

Upload Photos

1,817,268 photos uploaded!

WunderBlogs® & News

Nearby

Air Quality

  Air Quality AQ Index Pollutant
Not available.

Snow Depth

Station Depth Elevation

Earthquake Activity

City Distance Mag. Time & Date
Minimum magnitude displayed is 2.5.

Coastal Water Temperatures

Place Temperature

Stations

Nearby Weather Stations

Station Location Temp. Windchill Dew Point Humidity Wind Precip. Elev Updated Type